AFL1358 UUEE-UWSG
Flight info
| Callsign | AFL1358 |
|---|---|
| Flight time | 1h 14m |
| Altitude | 35000 |
| Route | TOGMO3H TOGMO M56 PISAR T385 SOKUR SOKUR1G |
| Aircraft | B738/M-SDE2E3FGHIRWXY/LB1 |
Departure
| Time | 2026-05-07 13:10 |
|---|---|
| Airport | Sheremetyevo International Airport (UUEE) |
Arrival
| Time | 2026-05-07 14:25 |
|---|---|
| Airport | Gagarin International Airport (UWSG) |
| Time | Latitude | Longitude | Altitude | Speed | Heading |
|---|---|---|---|---|---|
| 2026-05-07 12:26 | 55.97922 | 37.41904 | 640 ft | 0 kts | 255° |
| 2026-05-07 12:58 | 55.97923 | 37.41906 | 643 ft | 2 kts | 255° |
| 2026-05-07 12:58 | 55.97928 | 37.41941 | 639 ft | 3 kts | 256° |
| 2026-05-07 12:58 | 55.97933 | 37.41976 | 639 ft | 3 kts | 250° |
| 2026-05-07 12:58 | 55.97940 | 37.42005 | 644 ft | 3 kts | 218° |
| 2026-05-07 12:59 | 55.97950 | 37.42014 | 644 ft | 0 kts | 165° |
| 2026-05-07 13:06 | 55.97947 | 37.42015 | 638 ft | 2 kts | 165° |
| 2026-05-07 13:06 | 55.97913 | 37.42031 | 638 ft | 9 kts | 165° |
| 2026-05-07 13:07 | 55.97836 | 37.42068 | 641 ft | 13 kts | 165° |
| 2026-05-07 13:07 | 55.97749 | 37.42109 | 641 ft | 13 kts | 165° |
| 2026-05-07 13:07 | 55.97691 | 37.42203 | 642 ft | 13 kts | 89° |
| 2026-05-07 13:07 | 55.97709 | 37.42353 | 642 ft | 12 kts | 75° |
| 2026-05-07 13:08 | 55.97731 | 37.42495 | 640 ft | 12 kts | 75° |
| 2026-05-07 13:08 | 55.97753 | 37.42636 | 640 ft | 12 kts | 75° |
| 2026-05-07 13:08 | 55.97756 | 37.42774 | 641 ft | 11 kts | 110° |
| 2026-05-07 13:08 | 55.97723 | 37.42804 | 640 ft | 5 kts | 166° |
| 2026-05-07 13:09 | 55.97686 | 37.42821 | 640 ft | 7 kts | 166° |
| 2026-05-07 13:09 | 55.97622 | 37.42840 | 641 ft | 12 kts | 199° |
| 2026-05-07 13:09 | 55.97592 | 37.42761 | 640 ft | 0 kts | 256° |
| 2026-05-07 13:10 | 55.97559 | 37.42532 | 640 ft | 53 kts | 255° |
| 2026-05-07 13:10 | 55.97404 | 37.41493 | 640 ft | 120 kts | 255° |
| 2026-05-07 13:10 | 55.97156 | 37.39758 | 805 ft | 159 kts | 257° |
| 2026-05-07 13:10 | 55.96860 | 37.37791 | 1493 ft | 164 kts | 255° |
| 2026-05-07 13:11 | 55.96551 | 37.35854 | 2410 ft | 162 kts | 254° |
| 2026-05-07 13:11 | 55.96232 | 37.33838 | 2835 ft | 181 kts | 255° |
| 2026-05-07 13:11 | 55.95870 | 37.31536 | 3021 ft | 204 kts | 255° |
| 2026-05-07 13:11 | 55.95468 | 37.28986 | 3221 ft | 221 kts | 254° |
| 2026-05-07 13:12 | 55.95032 | 37.26229 | 3447 ft | 240 kts | 254° |
| 2026-05-07 13:12 | 55.94573 | 37.23327 | 4048 ft | 245 kts | 255° |
| 2026-05-07 13:12 | 55.94105 | 37.20363 | 4700 ft | 248 kts | 254° |
| 2026-05-07 13:12 | 55.93636 | 37.17396 | 5392 ft | 250 kts | 254° |
| 2026-05-07 13:13 | 55.93162 | 37.14400 | 6117 ft | 250 kts | 254° |
| 2026-05-07 13:13 | 55.92688 | 37.11413 | 6836 ft | 251 kts | 254° |
| 2026-05-07 13:13 | 55.92208 | 37.08398 | 7524 ft | 253 kts | 253° |
| 2026-05-07 13:13 | 55.91738 | 37.05369 | 8268 ft | 254 kts | 258° |
| 2026-05-07 13:14 | 55.91774 | 37.02264 | 9023 ft | 259 kts | 282° |
| 2026-05-07 13:14 | 55.92534 | 36.99308 | 9721 ft | 269 kts | 300° |
| 2026-05-07 13:14 | 55.93907 | 36.96970 | 10024 ft | 279 kts | 317° |
| 2026-05-07 13:14 | 55.95509 | 36.94979 | 9993 ft | 279 kts | 319° |
| 2026-05-07 13:15 | 55.97117 | 36.93037 | 10001 ft | 280 kts | 322° |
| 2026-05-07 13:15 | 55.98990 | 36.91860 | 10012 ft | 297 kts | 348° |
| 2026-05-07 13:15 | 56.01093 | 36.92361 | 10157 ft | 316 kts | 16° |
| 2026-05-07 13:15 | 56.03054 | 36.94294 | 10792 ft | 325 kts | 29° |
| 2026-05-07 13:16 | 56.04929 | 36.96560 | 11548 ft | 326 kts | 30° |
| 2026-05-07 13:16 | 56.06811 | 36.98839 | 12259 ft | 329 kts | 30° |
| 2026-05-07 13:16 | 56.08734 | 37.01125 | 12955 ft | 332 kts | 30° |
| 2026-05-07 13:16 | 56.10654 | 37.03488 | 13640 ft | 339 kts | 38° |
| 2026-05-07 13:17 | 56.12105 | 37.06756 | 13841 ft | 349 kts | 65° |
| 2026-05-07 13:17 | 56.12853 | 37.10985 | 14125 ft | 363 kts | 77° |
| 2026-05-07 13:17 | 56.13448 | 37.15451 | 14645 ft | 368 kts | 78° |
| 2026-05-07 13:17 | 56.14055 | 37.19937 | 14870 ft | 374 kts | 77° |
| 2026-05-07 13:18 | 56.14656 | 37.24443 | 14851 ft | 374 kts | 82° |
| 2026-05-07 13:18 | 56.14640 | 37.28883 | 14867 ft | 364 kts | 106° |
| 2026-05-07 13:18 | 56.13724 | 37.33029 | 14878 ft | 356 kts | 127° |
| 2026-05-07 13:18 | 56.12151 | 37.36417 | 15262 ft | 354 kts | 143° |
| 2026-05-07 13:19 | 56.10148 | 37.38848 | 16049 ft | 344 kts | 158° |
| 2026-05-07 13:19 | 56.07999 | 37.40694 | 16814 ft | 343 kts | 161° |
| 2026-05-07 13:19 | 56.05799 | 37.42464 | 17452 ft | 348 kts | 161° |
| 2026-05-07 13:19 | 56.03579 | 37.44253 | 18096 ft | 353 kts | 160° |
| 2026-05-07 13:20 | 56.01336 | 37.46101 | 18679 ft | 356 kts | 160° |
| 2026-05-07 13:20 | 55.99081 | 37.47983 | 19261 ft | 359 kts | 160° |
| 2026-05-07 13:20 | 55.96843 | 37.49880 | 19804 ft | 364 kts | 157° |
| 2026-05-07 13:20 | 55.94799 | 37.52724 | 19781 ft | 375 kts | 132° |
| 2026-05-07 13:21 | 55.93535 | 37.56826 | 19921 ft | 387 kts | 110° |
| 2026-05-07 13:21 | 55.92960 | 37.61539 | 20338 ft | 396 kts | 103° |
| 2026-05-07 13:21 | 55.92480 | 37.66412 | 20963 ft | 398 kts | 103° |
| 2026-05-07 13:21 | 55.91973 | 37.71300 | 21610 ft | 398 kts | 103° |
| 2026-05-07 13:22 | 55.91233 | 37.75970 | 22125 ft | 397 kts | 119° |
| 2026-05-07 13:22 | 55.89892 | 37.80257 | 22676 ft | 397 kts | 124° |
| 2026-05-07 13:22 | 55.88481 | 37.84519 | 23194 ft | 401 kts | 123° |
| 2026-05-07 13:22 | 55.87081 | 37.88854 | 23660 ft | 405 kts | 123° |
| 2026-05-07 13:23 | 55.85689 | 37.93267 | 24112 ft | 408 kts | 122° |
| 2026-05-07 13:23 | 55.84190 | 37.97538 | 24510 ft | 407 kts | 135° |
| 2026-05-07 13:23 | 55.82032 | 38.00683 | 24903 ft | 399 kts | 156° |
| 2026-05-07 13:23 | 55.79454 | 38.02339 | 25337 ft | 391 kts | 175° |
| 2026-05-07 13:24 | 55.76764 | 38.02530 | 25734 ft | 385 kts | 192° |
| 2026-05-07 13:24 | 55.74201 | 38.01355 | 26113 ft | 380 kts | 206° |
| 2026-05-07 13:24 | 55.72637 | 37.99962 | 26368 ft | 378 kts | 217° |
| 2026-05-07 13:24 | 55.70036 | 37.95929 | 26908 ft | 376 kts | 229° |
| 2026-05-07 13:25 | 55.68203 | 37.92602 | 27299 ft | 378 kts | 229° |
| 2026-05-07 13:25 | 55.66209 | 37.89509 | 27632 ft | 388 kts | 214° |
| 2026-05-07 13:25 | 55.63662 | 37.87725 | 27946 ft | 401 kts | 197° |
| 2026-05-07 13:25 | 55.60824 | 37.87305 | 27971 ft | 421 kts | 180° |
| 2026-05-07 13:26 | 55.55860 | 37.88164 | 28135 ft | 438 kts | 177° |
| 2026-05-07 13:26 | 55.52760 | 37.88771 | 28248 ft | 447 kts | 178° |
| 2026-05-07 13:26 | 55.49677 | 37.89344 | 28326 ft | 455 kts | 178° |
| 2026-05-07 13:27 | 55.43281 | 37.90425 | 28453 ft | 469 kts | 178° |
| 2026-05-07 13:27 | 55.40012 | 37.91095 | 28560 ft | 478 kts | 171° |
| 2026-05-07 13:27 | 55.36877 | 37.93186 | 28780 ft | 489 kts | 152° |
| 2026-05-07 13:28 | 55.34035 | 37.96499 | 29245 ft | 488 kts | 148° |
| 2026-05-07 13:28 | 55.31238 | 37.99892 | 29706 ft | 486 kts | 148° |
| 2026-05-07 13:28 | 55.28454 | 38.03264 | 30019 ft | 487 kts | 147° |
| 2026-05-07 13:28 | 55.25664 | 38.06612 | 30398 ft | 484 kts | 147° |
| 2026-05-07 13:29 | 55.22888 | 38.09904 | 30823 ft | 481 kts | 148° |
| 2026-05-07 13:29 | 55.20109 | 38.13172 | 31173 ft | 480 kts | 148° |
| 2026-05-07 13:29 | 55.17366 | 38.16378 | 31450 ft | 480 kts | 148° |
| 2026-05-07 13:29 | 55.14584 | 38.19617 | 31735 ft | 480 kts | 148° |
| 2026-05-07 13:30 | 55.11807 | 38.22846 | 32086 ft | 478 kts | 148° |
| 2026-05-07 13:30 | 55.09045 | 38.26054 | 32446 ft | 476 kts | 148° |
| 2026-05-07 13:30 | 55.06333 | 38.29198 | 32778 ft | 475 kts | 148° |
| 2026-05-07 13:30 | 55.03586 | 38.32380 | 33092 ft | 473 kts | 148° |
| 2026-05-07 13:31 | 55.00851 | 38.35543 | 33497 ft | 470 kts | 148° |
| 2026-05-07 13:31 | 54.98164 | 38.38647 | 33861 ft | 468 kts | 148° |
| 2026-05-07 13:31 | 54.95596 | 38.41606 | 34068 ft | 468 kts | 148° |
| 2026-05-07 13:31 | 54.92876 | 38.44736 | 34276 ft | 469 kts | 148° |
| 2026-05-07 13:32 | 54.90156 | 38.47862 | 34489 ft | 469 kts | 148° |
| 2026-05-07 13:32 | 54.87433 | 38.50986 | 34740 ft | 468 kts | 148° |
| 2026-05-07 13:32 | 54.84718 | 38.54096 | 34880 ft | 470 kts | 148° |
| 2026-05-07 13:32 | 54.82019 | 38.57183 | 34873 ft | 471 kts | 148° |
| 2026-05-07 13:33 | 54.76557 | 38.63416 | 34864 ft | 468 kts | 148° |
| 2026-05-07 13:33 | 54.71112 | 38.69239 | 34871 ft | 464 kts | 151° |
| 2026-05-07 13:34 | 54.62813 | 38.77738 | 34878 ft | 461 kts | 151° |
| 2026-05-07 13:35 | 54.57314 | 38.83441 | 34881 ft | 461 kts | 151° |
| 2026-05-07 13:35 | 54.51792 | 38.89146 | 34886 ft | 462 kts | 150° |
| 2026-05-07 13:36 | 54.46293 | 38.94811 | 34894 ft | 464 kts | 150° |
| 2026-05-07 13:36 | 54.40815 | 39.00552 | 34885 ft | 467 kts | 143° |
| 2026-05-07 13:36 | 54.38532 | 39.04510 | 34908 ft | 469 kts | 126° |
| 2026-05-07 13:37 | 54.36977 | 39.09429 | 34906 ft | 470 kts | 112° |
| 2026-05-07 13:37 | 54.34639 | 39.19920 | 34896 ft | 472 kts | 111° |
| 2026-05-07 13:38 | 54.32164 | 39.30392 | 34893 ft | 473 kts | 112° |
| 2026-05-07 13:38 | 54.29648 | 39.40720 | 34897 ft | 474 kts | 113° |
| 2026-05-07 13:39 | 54.27135 | 39.51002 | 34903 ft | 474 kts | 113° |
| 2026-05-07 13:39 | 54.24593 | 39.61389 | 34899 ft | 473 kts | 113° |
| 2026-05-07 13:40 | 54.22045 | 39.71765 | 34904 ft | 473 kts | 113° |
| 2026-05-07 13:40 | 54.19492 | 39.82112 | 34906 ft | 472 kts | 113° |
| 2026-05-07 13:41 | 54.16951 | 39.92359 | 34902 ft | 471 kts | 113° |
| 2026-05-07 13:41 | 54.14398 | 40.02614 | 34905 ft | 470 kts | 113° |
| 2026-05-07 13:42 | 54.11841 | 40.12873 | 34904 ft | 470 kts | 112° |
| 2026-05-07 13:42 | 54.09884 | 40.23161 | 34908 ft | 469 kts | 106° |
| 2026-05-07 13:43 | 54.08110 | 40.33870 | 34909 ft | 469 kts | 106° |
| 2026-05-07 13:43 | 54.06345 | 40.44267 | 34906 ft | 468 kts | 107° |
| 2026-05-07 13:44 | 54.04482 | 40.54895 | 34905 ft | 468 kts | 107° |
| 2026-05-07 13:44 | 54.02604 | 40.65469 | 34910 ft | 468 kts | 107° |
| 2026-05-07 13:45 | 54.00712 | 40.76065 | 34918 ft | 468 kts | 107° |
| 2026-05-07 13:45 | 53.98842 | 40.86493 | 34911 ft | 468 kts | 107° |
| 2026-05-07 13:46 | 53.96941 | 40.97049 | 34907 ft | 468 kts | 107° |
| 2026-05-07 13:46 | 53.95073 | 41.07481 | 34908 ft | 468 kts | 106° |
| 2026-05-07 13:47 | 53.93399 | 41.17744 | 34911 ft | 467 kts | 105° |
| 2026-05-07 13:47 | 53.91827 | 41.27562 | 34911 ft | 467 kts | 105° |
| 2026-05-07 13:48 | 53.90090 | 41.38201 | 34911 ft | 467 kts | 105° |
| 2026-05-07 13:48 | 53.88335 | 41.48798 | 34916 ft | 467 kts | 106° |
| 2026-05-07 13:49 | 53.86569 | 41.59394 | 34908 ft | 467 kts | 106° |
| 2026-05-07 13:49 | 53.84797 | 41.69972 | 34906 ft | 467 kts | 106° |
| 2026-05-07 13:50 | 53.83009 | 41.80537 | 34907 ft | 467 kts | 106° |
| 2026-05-07 13:50 | 53.81193 | 41.91083 | 34913 ft | 466 kts | 106° |
| 2026-05-07 13:51 | 53.79368 | 42.01613 | 34903 ft | 467 kts | 106° |
| 2026-05-07 13:51 | 53.77535 | 42.12146 | 34908 ft | 467 kts | 107° |
| 2026-05-07 13:52 | 53.75696 | 42.22665 | 34909 ft | 466 kts | 107° |
| 2026-05-07 13:52 | 53.73848 | 42.33170 | 34907 ft | 466 kts | 107° |
| 2026-05-07 13:53 | 53.71990 | 42.43671 | 34904 ft | 466 kts | 107° |
| 2026-05-07 13:53 | 53.70136 | 42.54088 | 34903 ft | 466 kts | 107° |
| 2026-05-07 13:54 | 53.68264 | 42.64563 | 34905 ft | 466 kts | 107° |
| 2026-05-07 13:54 | 53.66464 | 42.75063 | 34903 ft | 466 kts | 105° |
| 2026-05-07 13:55 | 53.64833 | 42.85655 | 34908 ft | 466 kts | 104° |
| 2026-05-07 13:55 | 53.63205 | 42.96212 | 34905 ft | 465 kts | 104° |
| 2026-05-07 13:56 | 53.61545 | 43.06728 | 34907 ft | 464 kts | 105° |
| 2026-05-07 13:56 | 53.59870 | 43.17191 | 34907 ft | 464 kts | 105° |
| 2026-05-07 13:57 | 53.58206 | 43.27515 | 34911 ft | 463 kts | 105° |
| 2026-05-07 13:57 | 53.56525 | 43.37892 | 34914 ft | 462 kts | 105° |
| 2026-05-07 13:58 | 53.54826 | 43.48320 | 34911 ft | 462 kts | 105° |
| 2026-05-07 13:58 | 53.53119 | 43.58727 | 34916 ft | 461 kts | 105° |
| 2026-05-07 13:59 | 53.51405 | 43.69127 | 34918 ft | 461 kts | 105° |
| 2026-05-07 13:59 | 53.49686 | 43.79493 | 34920 ft | 461 kts | 105° |
| 2026-05-07 14:00 | 53.47216 | 43.89400 | 34927 ft | 461 kts | 122° |
| 2026-05-07 14:00 | 53.43269 | 43.97853 | 34933 ft | 461 kts | 130° |
| 2026-05-07 14:01 | 53.39213 | 44.05816 | 34928 ft | 461 kts | 130° |
| 2026-05-07 14:01 | 53.35169 | 44.13849 | 34931 ft | 461 kts | 130° |
| 2026-05-07 14:02 | 53.31047 | 44.22102 | 34932 ft | 461 kts | 130° |
| 2026-05-07 14:02 | 53.28982 | 44.26234 | 34540 ft | 468 kts | 129° |
| 2026-05-07 14:02 | 53.26892 | 44.30410 | 33977 ft | 465 kts | 129° |
| 2026-05-07 14:02 | 53.24816 | 44.34548 | 33204 ft | 466 kts | 129° |
| 2026-05-07 14:03 | 53.22739 | 44.38683 | 32492 ft | 465 kts | 129° |
| 2026-05-07 14:03 | 53.20660 | 44.42811 | 31758 ft | 464 kts | 130° |
| 2026-05-07 14:03 | 53.18578 | 44.46937 | 31027 ft | 465 kts | 130° |
| 2026-05-07 14:03 | 53.16492 | 44.51059 | 30274 ft | 465 kts | 130° |
| 2026-05-07 14:04 | 53.14399 | 44.55185 | 29414 ft | 466 kts | 130° |
| 2026-05-07 14:04 | 53.12303 | 44.59309 | 28535 ft | 466 kts | 130° |
| 2026-05-07 14:04 | 53.10214 | 44.63416 | 27909 ft | 462 kts | 130° |
| 2026-05-07 14:04 | 53.08143 | 44.67481 | 27257 ft | 457 kts | 130° |
| 2026-05-07 14:05 | 53.06098 | 44.71489 | 26671 ft | 452 kts | 130° |
| 2026-05-07 14:05 | 53.04075 | 44.75448 | 26092 ft | 448 kts | 130° |
| 2026-05-07 14:05 | 53.02094 | 44.79322 | 25511 ft | 444 kts | 130° |
| 2026-05-07 14:05 | 53.00128 | 44.83159 | 24949 ft | 440 kts | 130° |
| 2026-05-07 14:06 | 52.98151 | 44.87013 | 24380 ft | 437 kts | 130° |
| 2026-05-07 14:06 | 52.96190 | 44.90830 | 23813 ft | 434 kts | 130° |
| 2026-05-07 14:06 | 52.94232 | 44.94595 | 23185 ft | 431 kts | 132° |
| 2026-05-07 14:06 | 52.92080 | 44.97876 | 22566 ft | 429 kts | 142° |
| 2026-05-07 14:07 | 52.89599 | 45.00577 | 21971 ft | 426 kts | 152° |
| 2026-05-07 14:07 | 52.86997 | 45.02775 | 21430 ft | 421 kts | 153° |
| 2026-05-07 14:07 | 52.84444 | 45.04886 | 20877 ft | 418 kts | 153° |
| 2026-05-07 14:07 | 52.81860 | 45.07042 | 20335 ft | 414 kts | 152° |
| 2026-05-07 14:08 | 52.80163 | 45.08475 | 19971 ft | 412 kts | 152° |
| 2026-05-07 14:08 | 52.77624 | 45.10639 | 19438 ft | 408 kts | 152° |
| 2026-05-07 14:08 | 52.75109 | 45.12789 | 18913 ft | 405 kts | 152° |
| 2026-05-07 14:08 | 52.72616 | 45.14922 | 18387 ft | 403 kts | 152° |
| 2026-05-07 14:09 | 52.70141 | 45.17047 | 17815 ft | 401 kts | 152° |
| 2026-05-07 14:09 | 52.67680 | 45.19161 | 17241 ft | 398 kts | 152° |
| 2026-05-07 14:09 | 52.65230 | 45.21264 | 16697 ft | 395 kts | 152° |
| 2026-05-07 14:09 | 52.62805 | 45.23343 | 16169 ft | 391 kts | 152° |
| 2026-05-07 14:10 | 52.60394 | 45.25407 | 15651 ft | 388 kts | 152° |
| 2026-05-07 14:10 | 52.58003 | 45.27451 | 15138 ft | 386 kts | 152° |
| 2026-05-07 14:10 | 52.55662 | 45.29450 | 14635 ft | 383 kts | 152° |
| 2026-05-07 14:10 | 52.53301 | 45.31462 | 14136 ft | 381 kts | 152° |
| 2026-05-07 14:11 | 52.50952 | 45.33463 | 13615 ft | 379 kts | 152° |
| 2026-05-07 14:11 | 52.48617 | 45.35450 | 13061 ft | 377 kts | 152° |
| 2026-05-07 14:11 | 52.46296 | 45.37421 | 12539 ft | 374 kts | 152° |
| 2026-05-07 14:11 | 52.43990 | 45.39379 | 12037 ft | 372 kts | 152° |
| 2026-05-07 14:12 | 52.41700 | 45.41320 | 11531 ft | 369 kts | 152° |
| 2026-05-07 14:12 | 52.39427 | 45.43244 | 11055 ft | 366 kts | 152° |
| 2026-05-07 14:12 | 52.37305 | 45.45037 | 10860 ft | 356 kts | 152° |
| 2026-05-07 14:12 | 52.35140 | 45.46867 | 10796 ft | 346 kts | 152° |
| 2026-05-07 14:13 | 52.33028 | 45.48651 | 10656 ft | 340 kts | 152° |
| 2026-05-07 14:13 | 52.30989 | 45.50373 | 10524 ft | 334 kts | 152° |
| 2026-05-07 14:13 | 52.28956 | 45.52089 | 10384 ft | 326 kts | 152° |
| 2026-05-07 14:13 | 52.26964 | 45.53768 | 10245 ft | 317 kts | 152° |
| 2026-05-07 14:14 | 52.25025 | 45.55402 | 10106 ft | 309 kts | 152° |
| 2026-05-07 14:14 | 52.23138 | 45.56989 | 9982 ft | 301 kts | 152° |
| 2026-05-07 14:14 | 52.21400 | 45.58450 | 9765 ft | 298 kts | 151° |
| 2026-05-07 14:14 | 52.19626 | 45.59939 | 9467 ft | 296 kts | 151° |
| 2026-05-07 14:15 | 52.17798 | 45.61467 | 9163 ft | 295 kts | 151° |
| 2026-05-07 14:15 | 52.15983 | 45.62976 | 8867 ft | 293 kts | 151° |
| 2026-05-07 14:15 | 52.14191 | 45.64464 | 8577 ft | 291 kts | 151° |
| 2026-05-07 14:15 | 52.12368 | 45.65976 | 8286 ft | 289 kts | 151° |
| 2026-05-07 14:16 | 52.10627 | 45.67419 | 8006 ft | 288 kts | 151° |
| 2026-05-07 14:16 | 52.08849 | 45.68894 | 7728 ft | 286 kts | 151° |
| 2026-05-07 14:16 | 52.07076 | 45.70363 | 7443 ft | 285 kts | 151° |
| 2026-05-07 14:16 | 52.05315 | 45.71821 | 7164 ft | 283 kts | 151° |
| 2026-05-07 14:17 | 52.03562 | 45.73271 | 6874 ft | 282 kts | 151° |
| 2026-05-07 14:17 | 52.01815 | 45.74714 | 6603 ft | 280 kts | 151° |
| 2026-05-07 14:17 | 52.00217 | 45.76032 | 6348 ft | 279 kts | 151° |
| 2026-05-07 14:17 | 51.98484 | 45.77460 | 6057 ft | 278 kts | 151° |
| 2026-05-07 14:18 | 51.96700 | 45.78666 | 5779 ft | 278 kts | 159° |
| 2026-05-07 14:18 | 51.94860 | 45.79612 | 5513 ft | 277 kts | 161° |
| 2026-05-07 14:18 | 51.93266 | 45.80401 | 5263 ft | 277 kts | 161° |
| 2026-05-07 14:18 | 51.91530 | 45.81268 | 4999 ft | 276 kts | 161° |
| 2026-05-07 14:19 | 51.89754 | 45.82175 | 4740 ft | 276 kts | 160° |
| 2026-05-07 14:19 | 51.87931 | 45.83123 | 4448 ft | 275 kts | 161° |
| 2026-05-07 14:19 | 51.86285 | 45.83985 | 4220 ft | 273 kts | 161° |
| 2026-05-07 14:19 | 51.84488 | 45.84928 | 3981 ft | 271 kts | 160° |
| 2026-05-07 14:20 | 51.82692 | 45.85871 | 3712 ft | 271 kts | 160° |
| 2026-05-07 14:20 | 51.80905 | 45.86814 | 3533 ft | 268 kts | 160° |
| 2026-05-07 14:20 | 51.79177 | 45.87727 | 3408 ft | 261 kts | 160° |
| 2026-05-07 14:20 | 51.77463 | 45.88631 | 3277 ft | 255 kts | 160° |
| 2026-05-07 14:21 | 51.75805 | 45.89503 | 3159 ft | 246 kts | 160° |
| 2026-05-07 14:21 | 51.74198 | 45.90344 | 3042 ft | 239 kts | 160° |
| 2026-05-07 14:21 | 51.72911 | 45.91086 | 2876 ft | 233 kts | 149° |
| 2026-05-07 14:21 | 51.71859 | 45.92837 | 2612 ft | 221 kts | 108° |
| 2026-05-07 14:22 | 51.71680 | 45.95195 | 2438 ft | 208 kts | 86° |
| 2026-05-07 14:22 | 51.71718 | 45.97483 | 2164 ft | 199 kts | 87° |
| 2026-05-07 14:22 | 51.71691 | 45.99670 | 1926 ft | 191 kts | 88° |
| 2026-05-07 14:22 | 51.71640 | 46.01752 | 1676 ft | 180 kts | 90° |
| 2026-05-07 14:23 | 51.71590 | 46.03699 | 1446 ft | 168 kts | 89° |
| 2026-05-07 14:23 | 51.71546 | 46.05514 | 1251 ft | 155 kts | 89° |
| 2026-05-07 14:23 | 51.71503 | 46.07273 | 1032 ft | 158 kts | 90° |
| 2026-05-07 14:23 | 51.71461 | 46.09004 | 855 ft | 155 kts | 91° |
| 2026-05-07 14:24 | 51.71419 | 46.10755 | 644 ft | 157 kts | 92° |
| 2026-05-07 14:24 | 51.71376 | 46.12511 | 433 ft | 158 kts | 92° |
| 2026-05-07 14:24 | 51.71333 | 46.14286 | 236 ft | 158 kts | 92° |
| 2026-05-07 14:24 | 51.71295 | 46.16037 | 106 ft | 148 kts | 92° |
| 2026-05-07 14:25 | 51.71258 | 46.17334 | 107 ft | 65 kts | 92° |
| 2026-05-07 14:25 | 51.71251 | 46.17683 | 105 ft | 21 kts | 91° |
| 2026-05-07 14:25 | 51.71246 | 46.17912 | 107 ft | 20 kts | 95° |
| 2026-05-07 14:25 | 51.71232 | 46.18036 | 106 ft | 6 kts | 61° |
| 2026-05-07 14:26 | 51.71251 | 46.18027 | 105 ft | 3 kts | 289° |
| 2026-05-07 14:26 | 51.71254 | 46.17982 | 104 ft | 5 kts | 273° |
| 2026-05-07 14:26 | 51.71255 | 46.17917 | 105 ft | 7 kts | 270° |
| 2026-05-07 14:26 | 51.71254 | 46.17795 | 105 ft | 15 kts | 270° |
| 2026-05-07 14:27 | 51.71256 | 46.17603 | 106 ft | 18 kts | 271° |
| 2026-05-07 14:27 | 51.71264 | 46.17452 | 107 ft | 11 kts | 295° |
| 2026-05-07 14:27 | 51.71332 | 46.17405 | 106 ft | 11 kts | 359° |
| 2026-05-07 14:27 | 51.71411 | 46.17414 | 105 ft | 11 kts | 3° |
| 2026-05-07 14:28 | 51.71487 | 46.17420 | 105 ft | 11 kts | 3° |
| 2026-05-07 14:28 | 51.71561 | 46.17425 | 105 ft | 11 kts | 2° |
| 2026-05-07 14:28 | 51.71621 | 46.17380 | 104 ft | 10 kts | 292° |
| 2026-05-07 14:28 | 51.71628 | 46.17267 | 104 ft | 10 kts | 272° |
| 2026-05-07 14:29 | 51.71631 | 46.17177 | 104 ft | 6 kts | 285° |
| 2026-05-07 14:29 | 51.71663 | 46.17138 | 104 ft | 6 kts | 349° |
| 2026-05-07 14:29 | 51.71669 | 46.17138 | 104 ft | 2 kts | 358° |
| 2026-05-07 14:29 | 51.71690 | 46.17138 | 104 ft | 4 kts | 1° |
| 2026-05-07 14:30 | 51.71706 | 46.17139 | 104 ft | 0 kts | 1° |